Time;durP1;ratioP1;P1;durP2;ratioP2;P2;SDS_P1;SDS_P2;PMS_P1;PMS_P2;Temp;Humidity;BMP_temperature;BMP_pressure;BME280_temperature;BME280_humidity;BME280_pressure;Samples;Min_cycle;Max_cycle;Signal;HPM_P1;HPM_P2
2021/05/29 00:00:58;;;;;;;4.30;2.97;;;;;;;17.62;58.18;96732.84;4983792;28;20042;-66
2021/05/29 00:03:25;;;;;;;7.57;3.05;;;;;;;17.56;58.32;96750.53;4984348;28;20034;-66
2021/05/29 00:05:51;;;;;;;4.38;2.88;;;;;;;16.90;57.91;96640.31;4982666;28;20436;-66
2021/05/29 00:08:18;;;;;;;3.20;2.90;;;;;;;17.43;59.22;96746.69;4999367;28;20038;-67
2021/05/29 00:10:48;;;;;;;6.47;2.80;;;;;;;17.11;59.18;96682.75;4983838;28;20034;-67
2021/05/29 00:13:14;;;;;;;4.35;2.80;;;;;;;17.46;58.85;96740.28;4982769;28;20230;-66
2021/05/29 00:15:40;;;;;;;5.45;3.25;;;;;;;17.51;59.85;96729.41;4998353;28;20449;-66
2021/05/29 00:18:07;;;;;;;5.45;2.60;;;;;;;17.42;60.16;96742.31;4984271;28;20034;-65
2021/05/29 00:20:35;;;;;;;3.58;2.60;;;;;;;17.39;59.50;96752.34;4983961;28;20029;-66
2021/05/29 00:23:00;;;;;;;6.93;2.85;;;;;;;16.78;61.07;96705.19;4984444;28;20129;-65
2021/05/29 00:25:26;;;;;;;8.65;3.30;;;;;;;16.98;62.10;96737.69;4999075;28;20149;-66
2021/05/29 00:27:51;;;;;;;6.63;2.75;;;;;;;15.79;62.03;96558.19;4984077;28;20037;-67
2021/05/29 00:30:18;;;;;;;4.13;2.72;;;;;;;16.91;61.03;96742.59;4983693;28;20038;-66
2021/05/29 00:32:43;;;;;;;8.10;2.58;;;;;;;16.38;61.19;96620.97;4998711;28;20035;-65
2021/05/29 00:35:10;;;;;;;6.05;3.10;;;;;;;17.14;61.58;96723.09;4998518;28;20089;-67
2021/05/29 00:37:36;;;;;;;3.28;2.90;;;;;;;17.26;60.38;96745.72;4983920;28;20117;-66
2021/05/29 00:40:04;;;;;;;6.57;3.05;;;;;;;17.10;61.02;96756.75;4999118;28;20065;-65
2021/05/29 00:42:30;;;;;;;3.75;3.10;;;;;;;16.33;60.73;96646.59;4982510;28;20584;-66
2021/05/29 00:44:57;;;;;;;6.55;3.10;;;;;;;17.24;61.73;96761.34;4984186;28;20129;-65
2021/05/29 00:47:26;;;;;;;5.93;2.83;;;;;;;17.17;60.71;96755.84;4983764;28;20209;-67
2021/05/29 00:49:53;;;;;;;3.75;2.90;;;;;;;17.26;60.66;96770.13;4984121;28;20061;-66
2021/05/29 00:52:21;;;;;;;5.15;2.58;;;;;;;17.18;59.55;96757.44;4998283;28;20030;-65
2021/05/29 00:54:47;;;;;;;3.13;2.60;;;;;;;16.92;59.85;96710.59;4998618;28;20446;-66
2021/05/29 00:57:14;;;;;;;4.38;2.88;;;;;;;17.29;58.93;96755.28;4983702;28;20031;-67
2021/05/29 00:59:41;;;;;;;5.10;2.75;;;;;;;17.05;59.56;96720.03;4984523;28;20045;-66
2021/05/29 01:02:09;;;;;;;4.65;3.13;;;;;;;16.41;59.47;96641.69;4983560;28;20030;-66
2021/05/29 01:04:36;;;;;;;5.03;2.47;;;;;;;17.42;59.83;96768.28;4984118;28;20042;-67
2021/05/29 01:07:03;;;;;;;4.88;2.80;;;;;;;17.47;59.65;96769.84;4983475;28;20432;-66
2021/05/29 01:09:28;;;;;;;4.75;3.00;;;;;;;17.30;60.03;96743.66;4984395;28;20038;-66
2021/05/29 01:11:54;;;;;;;3.35;2.92;;;;;;;17.41;60.86;96749.09;4982123;28;20049;-66
2021/05/29 01:14:20;;;;;;;6.82;3.33;;;;;;;17.34;62.52;96747.19;4984075;28;20082;-65
2021/05/29 01:16:59;;;;;;;5.47;3.17;;;;;;;16.12;61.45;96562.97;4983838;28;20536;-67
2021/05/29 01:19:25;;;;;;;5.60;3.55;;;;;;;17.39;61.66;96734.72;4982240;28;20117;-66
2021/05/29 01:21:51;;;;;;;4.60;2.85;;;;;;;17.32;60.57;96740.44;4983405;28;20481;-66
2021/05/29 01:24:22;;;;;;;4.47;2.90;;;;;;;16.68;58.90;96619.44;4985818;28;20038;-66
2021/05/29 01:26:49;;;;;;;4.05;2.67;;;;;;;16.66;59.87;96596.69;4985337;28;20417;-66
2021/05/29 01:29:15;;;;;;;2.78;2.33;;;;;;;16.96;59.51;96644.97;4987241;28;20476;-67
2021/05/29 01:31:45;;;;;;;4.88;2.40;;;;;;;17.14;59.39;96711.91;4985712;28;20573;-66
2021/05/29 01:34:13;;;;;;;3.35;2.47;;;;;;;17.00;59.90;96717.69;4985661;28;20046;-66
2021/05/29 01:36:40;;;;;;;13.35;2.92;;;;;;;16.86;60.05;96740.25;4985159;28;20026;-65
2021/05/29 01:39:10;;;;;;;3.20;2.35;;;;;;;16.13;59.58;96608.50;4987143;28;20657;-66
2021/05/29 01:41:36;;;;;;;4.25;2.25;;;;;;;16.82;60.22;96723.50;4984727;28;20038;-66
2021/05/29 01:44:06;;;;;;;2.85;2.33;;;;;;;16.84;60.15;96739.88;4987141;28;20038;-65
2021/05/29 01:46:32;;;;;;;3.10;2.13;;;;;;;16.36;59.34;96656.16;4985181;28;20026;-65
2021/05/29 01:48:58;;;;;;;4.20;1.80;;;;;;;16.83;59.77;96719.53;4985803;28;20093;-66
2021/05/29 01:51:24;;;;;;;6.00;2.10;;;;;;;16.73;60.22;96714.03;4986579;28;20049;-66
2021/05/29 01:53:52;;;;;;;4.60;2.20;;;;;;;16.67;60.73;96743.69;4985110;28;20042;-66
2021/05/29 01:56:18;;;;;;;3.13;1.80;;;;;;;16.65;60.53;96763.69;4985980;28;20042;-66
2021/05/29 01:58:45;;;;;;;3.40;2.00;;;;;;;16.54;61.04;96733.06;4986822;28;20042;-67
2021/05/29 02:01:12;;;;;;;8.65;2.60;;;;;;;16.54;60.64;96735.84;4986135;28;20109;-68
2021/05/29 02:03:40;;;;;;;2.65;2.15;;;;;;;16.60;60.32;96728.59;4984909;28;20050;-66
2021/05/29 02:06:06;;;;;;;7.45;2.30;;;;;;;16.09;59.49;96664.41;4986441;28;20046;-67
2021/05/29 02:08:31;;;;;;;4.15;2.60;;;;;;;16.40;59.85;96696.84;4986226;28;20035;-66
2021/05/29 02:10:57;;;;;;;3.17;2.35;;;;;;;16.63;60.18;96727.75;4985577;28;20084;-66
2021/05/29 02:13:35;;;;;;;3.83;2.28;;;;;;;16.60;60.03;96731.38;4986891;28;20030;-67
2021/05/29 02:16:02;;;;;;;8.00;2.75;;;;;;;16.59;59.67;96732.59;5000424;28;20054;-67
2021/05/29 02:18:28;;;;;;;4.80;2.15;;;;;;;16.58;60.22;96730.22;4986321;28;20155;-66
2021/05/29 02:20:59;;;;;;;2.60;1.85;;;;;;;16.10;60.34;96660.44;4985893;28;20070;-67
2021/05/29 02:23:36;;;;;;;2.33;1.95;;;;;;;16.38;60.38;96715.22;4986383;28;20034;-67
2021/05/29 02:26:05;;;;;;;4.75;2.20;;;;;;;16.46;60.42;96745.53;4985999;28;20030;-66
2021/05/29 02:28:33;;;;;;;4.10;2.15;;;;;;;16.42;60.91;96738.34;5000741;28;20123;-65
2021/05/29 02:30:59;;;;;;;2.42;2.13;;;;;;;16.37;61.56;96714.44;5000340;28;20033;-66
2021/05/29 02:33:25;;;;;;;7.18;2.60;;;;;;;15.96;61.24;96671.75;5000507;28;20042;-64
2021/05/29 02:35:50;;;;;;;5.55;2.35;;;;;;;15.77;61.13;96629.66;4985422;28;20034;-65
2021/05/29 02:38:17;;;;;;;4.90;2.35;;;;;;;16.35;61.63;96741.22;4985545;28;20034;-66
2021/05/29 02:40:43;;;;;;;3.38;2.10;;;;;;;16.32;61.77;96740.06;4985438;28;20066;-63
2021/05/29 02:43:09;;;;;;;4.57;2.10;;;;;;;16.35;61.64;96732.81;4986006;28;20027;-64
2021/05/29 02:45:34;;;;;;;5.72;2.60;;;;;;;16.26;61.41;96730.53;4986209;28;20031;-64
2021/05/29 02:48:01;;;;;;;4.57;2.22;;;;;;;15.62;61.18;96644.94;4985980;28;20034;-63
2021/05/29 02:50:27;;;;;;;4.47;2.13;;;;;;;16.13;61.69;96749.03;4985689;28;20497;-64
2021/05/29 02:52:52;;;;;;;4.97;2.30;;;;;;;16.24;61.69;96760.91;4985886;28;20034;-66
2021/05/29 02:55:22;;;;;;;4.35;2.10;;;;;;;16.26;61.66;96768.88;4985507;28;20524;-66
2021/05/29 02:57:53;;;;;;;4.35;2.13;;;;;;;15.48;61.77;96634.69;5000607;28;20030;-66
2021/05/29 03:00:20;;;;;;;4.45;2.35;;;;;;;16.31;61.38;96797.16;5000224;28;20150;-66
2021/05/29 03:02:46;;;;;;;5.25;3.03;;;;;;;15.91;61.20;96708.50;4985470;28;20053;-65
2021/05/29 03:05:12;;;;;;;6.35;2.60;;;;;;;16.47;61.34;96786.25;4983709;28;20564;-66
2021/05/29 03:07:38;;;;;;;2.20;2.00;;;;;;;16.46;60.97;96770.69;4985359;28;20064;-65
2021/05/29 03:10:06;;;;;;;3.92;1.98;;;;;;;16.51;60.76;96775.84;4985788;28;20507;-65
2021/05/29 03:12:35;;;;;;;8.10;2.15;;;;;;;16.51;60.45;96775.84;4983844;28;20026;-64
2021/05/29 03:15:01;;;;;;;3.08;1.88;;;;;;;16.60;60.27;96789.31;4983626;28;20153;-64
2021/05/29 03:17:26;;;;;;;6.15;2.25;;;;;;;16.59;60.42;96793.31;4983662;28;20121;-65
2021/05/29 03:19:53;;;;;;;6.38;2.08;;;;;;;16.63;60.17;96786.47;4983572;28;20045;-65
2021/05/29 03:22:19;;;;;;;4.50;1.80;;;;;;;16.27;59.72;96731.31;4984826;28;20058;-65
2021/05/29 03:24:45;;;;;;;6.75;2.17;;;;;;;16.72;59.53;96776.81;4983900;28;20104;-66
2021/05/29 03:27:16;;;;;;;3.33;2.03;;;;;;;16.80;59.85;96781.09;4984549;28;20034;-65
2021/05/29 03:29:41;;;;;;;2.92;2.10;;;;;;;16.75;59.27;96757.19;4984711;28;20034;-65
2021/05/29 03:32:07;;;;;;;4.13;1.98;;;;;;;16.77;58.86;96757.53;4982678;28;20065;-65
2021/05/29 03:34:32;;;;;;;2.88;1.92;;;;;;;17.01;59.09;96775.28;4985425;28;20038;-66
2021/05/29 03:36:58;;;;;;;3.83;2.13;;;;;;;16.53;58.83;96678.31;4984520;28;20030;-66
2021/05/29 03:39:23;;;;;;;3.13;1.65;;;;;;;17.07;58.75;96751.19;4984953;28;20034;-65
2021/05/29 03:41:48;;;;;;;3.80;1.80;;;;;;;17.00;58.77;96748.47;4984229;28;20023;-65
2021/05/29 03:44:14;;;;;;;5.15;1.92;;;;;;;16.18;59.32;96645.19;4984247;28;20041;-65
2021/05/29 03:46:39;;;;;;;5.63;1.90;;;;;;;16.96;58.57;96761.72;4982824;28;20030;-65
2021/05/29 03:49:05;;;;;;;2.28;1.65;;;;;;;16.87;58.58;96708.25;4984965;28;20100;-64
2021/05/29 03:51:30;;;;;;;6.40;1.50;;;;;;;17.09;58.02;96807.53;4984529;28;20029;-65
2021/05/29 03:53:56;;;;;;;2.97;2.10;;;;;;;16.61;58.03;96665.84;4983048;28;20137;-65
2021/05/29 03:56:22;;;;;;;4.13;1.92;;;;;;;17.11;59.17;96701.53;4983750;28;20041;-65
2021/05/29 03:58:48;;;;;;;2.17;1.70;;;;;;;17.54;57.39;96764.16;4983100;28;20069;-65
2021/05/29 04:01:16;;;;;;;4.32;1.88;;;;;;;17.50;57.40;96752.19;4982706;28;20057;-64
2021/05/29 04:03:41;;;;;;;2.90;1.80;;;;;;;17.59;57.18;96777.69;4982760;28;20070;-65
2021/05/29 04:06:07;;;;;;;2.55;2.03;;;;;;;17.24;57.25;96691.38;4998817;28;20058;-67
2021/05/29 04:08:33;;;;;;;4.38;1.90;;;;;;;17.15;56.95;96658.28;4998940;28;20414;-66
2021/05/29 04:10:58;;;;;;;3.38;1.83;;;;;;;17.71;57.52;96763.09;4984476;28;20045;-64
2021/05/29 04:13:24;;;;;;;2.97;2.10;;;;;;;17.69;57.41;96752.31;4984650;28;20095;-65
2021/05/29 04:15:49;;;;;;;4.15;1.90;;;;;;;17.61;56.65;96756.44;4998575;28;20533;-65
2021/05/29 04:18:15;;;;;;;5.10;2.67;;;;;;;17.88;56.32;96770.44;4984122;28;20489;-65
2021/05/29 04:20:41;;;;;;;3.63;1.60;;;;;;;17.63;56.58;96750.41;4983613;28;20030;-64
2021/05/29 04:23:06;;;;;;;5.50;2.03;;;;;;;17.68;56.70;96780.75;4983620;28;20037;-67
2021/05/29 04:25:32;;;;;;;4.90;2.88;;;;;;;17.52;58.04;96758.97;4982014;28;20026;-65
2021/05/29 04:27:58;;;;;;;10.13;3.05;;;;;;;17.60;59.13;96787.69;4999432;28;20064;-64
2021/05/29 04:30:26;;;;;;;11.73;3.40;;;;;;;17.79;59.27;96784.19;4984024;28;20113;-65
2021/05/29 04:32:52;;;;;;;4.65;2.45;;;;;;;17.67;59.70;96753.97;4984288;28;20027;-67
2021/05/29 04:35:18;;;;;;;4.60;2.50;;;;;;;17.73;59.32;96732.66;4998592;28;20532;-68
2021/05/29 04:37:46;;;;;;;3.33;2.03;;;;;;;17.66;58.83;96749.56;4984160;28;20066;-67
2021/05/29 04:40:14;;;;;;;4.53;2.13;;;;;;;17.15;59.20;96658.28;4983853;28;20509;-67
2021/05/29 04:42:40;;;;;;;4.28;2.20;;;;;;;17.94;58.54;96746.34;4998568;28;20382;-68
2021/05/29 04:45:08;;;;;;;2.78;2.10;;;;;;;18.09;57.32;96748.47;4984178;28;20118;-67
2021/05/29 04:47:34;;;;;;;4.63;2.40;;;;;;;18.03;57.47;96736.16;4998633;28;20046;-68
2021/05/29 04:50:10;;;;;;;6.20;2.65;;;;;;;18.59;58.19;96793.25;4984552;28;20038;-68
2021/05/29 04:52:39;;;;;;;3.30;2.10;;;;;;;18.81;57.23;96790.88;4998883;28;20038;-69
2021/05/29 04:55:06;;;;;;;6.22;2.30;;;;;;;18.71;56.52;96787.03;4998836;28;20077;-69
2021/05/29 04:57:32;;;;;;;3.05;1.75;;;;;;;18.57;56.18;96762.06;4986233;28;20088;-67
2021/05/29 04:59:57;;;;;;;2.88;2.45;;;;;;;19.12;55.14;96807.09;4988033;28;20469;-67
2021/05/29 05:02:23;;;;;;;5.28;2.83;;;;;;;19.03;55.96;96773.16;4987449;28;20466;-66
2021/05/29 05:04:48;;;;;;;4.00;2.55;;;;;;;18.99;55.39;96744.38;4987980;28;20034;-67
2021/05/29 05:07:14;;;;;;;3.25;2.25;;;;;;;19.32;55.67;96799.47;4987073;28;20536;-67
2021/05/29 05:09:40;;;;;;;6.53;3.10;;;;;;;19.38;54.74;96758.41;4985913;28;20138;-68
2021/05/29 05:12:06;;;;;;;8.35;2.85;;;;;;;19.06;54.34;96690.88;4987443;28;20363;-68
2021/05/29 05:14:31;;;;;;;4.10;2.40;;;;;;;19.23;53.21;96695.31;4987046;28;20154;-68
2021/05/29 05:16:57;;;;;;;4.43;2.63;;;;;;;19.86;52.45;96793.44;4987033;28;20690;-68
2021/05/29 05:19:22;;;;;;;4.70;2.42;;;;;;;19.55;52.00;96729.09;4985790;28;20038;-67
2021/05/29 05:21:48;;;;;;;5.15;2.72;;;;;;;19.96;52.28;96804.47;4987037;28;20034;-66
2021/05/29 05:24:13;;;;;;;4.75;2.45;;;;;;;19.58;51.61;96743.50;4985520;28;20041;-66
2021/05/29 05:26:39;;;;;;;4.03;2.50;;;;;;;19.80;51.86;96798.00;4985264;28;20034;-66
2021/05/29 05:29:04;;;;;;;6.35;2.33;;;;;;;19.83;51.67;96817.59;4986907;28;20034;-67
2021/05/29 05:31:31;;;;;;;4.68;3.00;;;;;;;19.90;52.19;96799.78;4986700;28;20046;-66
2021/05/29 05:33:57;;;;;;;5.55;2.88;;;;;;;20.18;51.82;96828.06;4987172;28;20456;-66
2021/05/29 05:36:23;;;;;;;6.30;2.60;;;;;;;19.78;52.59;96826.56;4986909;28;20026;-66
2021/05/29 05:38:51;;;;;;;3.00;2.30;;;;;;;20.24;51.33;96825.50;4985006;28;20034;-67
2021/05/29 05:41:16;;;;;;;3.80;2.35;;;;;;;19.90;51.72;96794.16;4985266;28;20824;-67
2021/05/29 05:43:42;;;;;;;4.93;3.20;;;;;;;20.07;52.21;96843.56;4986450;28;20098;-68
2021/05/29 05:46:12;;;;;;;4.20;2.17;;;;;;;20.55;51.20;96835.19;4984604;28;20030;-67
2021/05/29 05:48:38;;;;;;;3.67;2.20;;;;;;;20.45;49.79;96763.09;4986924;28;20038;-68
2021/05/29 05:51:04;;;;;;;8.98;2.72;;;;;;;21.09;50.06;96826.94;4986112;28;20034;-67
2021/05/29 05:53:30;;;;;;;4.15;2.38;;;;;;;21.15;48.88;96839.25;4985487;28;20038;-68
2021/05/29 05:56:03;;;;;;;9.18;2.75;;;;;;;21.15;50.21;96828.75;4986184;28;20070;-66
2021/05/29 05:58:30;;;;;;;7.43;2.50;;;;;;;21.12;50.97;96818.38;5000959;28;20142;-66
2021/05/29 06:00:57;;;;;;;4.35;2.50;;;;;;;21.35;50.33;96843.50;4985916;28;20421;-67
2021/05/29 06:03:23;;;;;;;9.13;4.43;;;;;;;21.03;51.81;96840.78;4986451;28;20096;-67
2021/05/29 06:05:49;;;;;;;6.95;2.78;;;;;;;20.34;53.11;96844.16;4986015;28;20121;-67
2021/05/29 06:08:15;;;;;;;9.25;2.63;;;;;;;20.19;52.71;96761.34;4985329;28;20113;-67
2021/05/29 06:10:41;;;;;;;6.30;2.65;;;;;;;20.34;52.26;96773.81;4984546;28;20030;-67
2021/05/29 06:13:15;;;;;;;6.80;2.65;;;;;;;20.41;54.36;96841.16;4986463;28;20516;-67
2021/05/29 06:21:21;;;;;;;2.60;2.40;;;;;;;20.66;51.32;96841.34;4999603;28;20162;-68
2021/05/29 06:23:46;;;;;;;4.40;2.35;;;;;;;20.58;50.15;96766.75;4986371;28;20656;-66
2021/05/29 06:26:12;;;;;;;6.95;2.40;;;;;;;20.66;49.49;96740.00;4985837;28;20038;-67
2021/05/29 06:28:37;;;;;;;3.20;2.50;;;;;;;19.57;49.05;96523.53;5000781;28;20038;-67
2021/05/29 06:31:04;;;;;;;5.50;2.15;;;;;;;21.76;48.57;96825.81;5000252;28;20026;-67
2021/05/29 06:33:30;;;;;;;5.43;2.45;;;;;;;21.73;48.46;96852.06;4986473;28;20061;-67
2021/05/29 06:35:56;;;;;;;4.97;3.78;;;;;;;21.84;49.98;96836.44;4985617;28;20034;-66
2021/05/29 06:38:21;;;;;;;10.25;2.90;;;;;;;21.14;49.55;96753.94;4985997;28;20082;-67
2021/05/29 06:40:47;;;;;;;5.25;3.40;;;;;;;21.47;48.00;96786.38;4985312;28;20038;-67
2021/05/29 06:43:12;;;;;;;7.10;2.40;;;;;;;21.37;48.13;96846.63;4985294;28;20037;-67
2021/05/29 06:45:38;;;;;;;2.67;2.47;;;;;;;21.57;47.14;96827.56;5000427;28;20030;-67
2021/05/29 06:48:04;;;;;;;4.38;2.47;;;;;;;21.79;46.96;96822.09;4985874;28;20022;-66
2021/05/29 06:50:29;;;;;;;3.30;2.28;;;;;;;21.63;45.59;96810.84;5000348;28;20050;-69
2021/05/29 06:52:58;;;;;;;3.20;2.33;;;;;;;21.27;46.39;96819.56;4985558;28;20080;-67
2021/05/29 07:00:51;;;;;;;4.18;2.80;;;;;;;22.05;46.86;96835.75;4985024;28;20100;-66
2021/05/29 07:03:17;;;;;;;4.80;3.20;;;;;;;22.10;48.68;96834.41;4985256;28;20046;-65
2021/05/29 07:05:43;;;;;;;6.18;3.35;;;;;;;22.02;47.45;96818.97;4983734;28;20084;-66
2021/05/29 07:08:08;;;;;;;18.23;9.70;;;;;;;22.02;47.27;96796.41;4983995;28;20093;-66
2021/05/29 07:10:34;;;;;;;5.90;2.90;;;;;;;22.38;47.88;96842.75;4983223;28;20030;-68
2021/05/29 07:12:59;;;;;;;4.90;2.67;;;;;;;22.02;47.44;96802.81;4985012;28;20516;-66
2021/05/29 07:15:34;;;;;;;8.60;4.18;;;;;;;22.37;48.45;96835.53;4982831;28;20061;-66
2021/05/29 07:18:04;;;;;;;6.05;2.85;;;;;;;22.34;48.01;96818.72;4983423;28;20030;-66
2021/05/29 07:20:31;;;;;;;2.97;2.70;;;;;;;22.68;46.41;96841.41;4982091;28;20038;-63
2021/05/29 07:22:57;;;;;;;4.15;2.95;;;;;;;22.60;46.84;96825.16;4984972;28;20030;-65
2021/05/29 07:25:23;;;;;;;11.20;5.75;;;;;;;21.48;47.03;96742.84;4983338;28;20469;-67
2021/05/29 07:27:48;;;;;;;5.13;3.35;;;;;;;21.88;46.54;96797.63;4984836;28;20030;-65
2021/05/29 07:30:14;;;;;;;6.68;2.60;;;;;;;22.41;47.08;96830.53;4984670;28;20045;-66
2021/05/29 07:32:39;;;;;;;4.47;2.38;;;;;;;22.42;45.51;96817.22;4983154;28;20038;-66
2021/05/29 07:35:05;;;;;;;5.43;3.10;;;;;;;22.63;47.05;96835.53;4984766;28;20104;-66
2021/05/29 07:37:31;;;;;;;6.57;3.13;;;;;;;22.76;48.25;96833.47;4984201;28;20117;-65
2021/05/29 07:39:56;;;;;;;3.40;2.63;;;;;;;21.52;49.13;96830.91;4981429;28;20080;-66
2021/05/29 07:42:22;;;;;;;4.93;2.78;;;;;;;20.42;51.12;96797.72;4981047;28;20445;-66
2021/05/29 07:44:48;;;;;;;4.65;2.50;;;;;;;21.34;51.11;96852.41;4982387;28;20042;-64
2021/05/29 07:47:14;;;;;;;3.25;2.60;;;;;;;21.76;48.48;96846.34;4981482;28;20065;-67
2021/05/29 07:49:39;;;;;;;5.97;3.13;;;;;;;20.85;49.46;96714.50;4984417;28;20112;-63
2021/05/29 07:52:05;;;;;;;4.88;2.70;;;;;;;21.48;49.51;96700.56;4983676;28;20393;-70
2021/05/29 07:54:31;;;;;;;3.80;2.40;;;;;;;22.98;47.90;96845.63;4982249;28;20133;-61
2021/05/29 07:56:57;;;;;;;4.40;3.20;;;;;;;21.58;46.46;96602.81;4998680;28;20030;-60
2021/05/29 07:59:23;;;;;;;10.20;5.97;;;;;;;21.65;45.48;96546.19;4984173;28;20042;-61
2021/05/29 08:01:48;;;;;;;19.00;9.88;;;;;;;23.74;44.53;96849.72;4983158;28;20030;-61
2021/05/29 08:04:14;;;;;;;8.75;4.60;;;;;;;24.06;43.43;96843.63;4984029;28;20459;-61
2021/05/29 08:06:40;;;;;;;9.35;4.28;;;;;;;24.08;43.10;96855.28;4983666;28;20038;-70
2021/05/29 08:09:07;;;;;;;6.30;3.80;;;;;;;23.55;43.02;96766.78;4981963;28;20038;-62
2021/05/29 08:11:37;;;;;;;12.15;6.20;;;;;;;24.47;41.84;96840.34;4982782;28;20034;-64
2021/05/29 08:14:05;;;;;;;6.90;4.00;;;;;;;24.31;41.06;96781.13;4981630;28;20161;-69
2021/05/29 08:16:31;;;;;;;5.50;3.20;;;;;;;24.70;40.31;96839.84;4982873;28;20046;-73
2021/05/29 08:18:57;;;;;;;3.15;2.95;;;;;;;24.86;40.55;96808.41;4981515;28;20450;-59
2021/05/29 08:21:22;;;;;;;5.18;2.70;;;;;;;23.52;39.54;96558.44;4983130;28;20045;-73
2021/05/29 08:23:48;;;;;;;3.65;2.70;;;;;;;25.50;38.31;96828.28;4981923;28;20034;-61
2021/05/29 08:26:14;;;;;;;3.13;2.65;;;;;;;25.09;38.79;96807.78;4983804;28;20184;-64
2021/05/29 08:28:40;;;;;;;11.93;6.38;;;;;;;25.32;39.05;96846.84;4981696;28;20092;-70
2021/05/29 08:31:06;;;;;;;16.60;8.75;;;;;;;25.47;39.65;96849.88;4985191;28;20038;-61
2021/05/29 08:33:31;;;;;;;8.02;4.95;;;;;;;24.90;39.73;96792.00;4987857;28;20039;-60
2021/05/29 08:35:57;;;;;;;14.27;7.25;;;;;;;24.90;40.29;96820.34;4986868;28;20070;-72
2021/05/29 08:38:23;;;;;;;3.60;2.75;;;;;;;25.49;39.43;96843.72;4988105;28;20128;-60
2021/05/29 08:40:48;;;;;;;20.98;11.25;;;;;;;25.65;39.27;96838.53;4987132;28;20477;-76
2021/05/29 08:43:14;;;;;;;5.20;4.30;;;;;;;26.08;38.31;96840.19;4987181;28;20097;-70
2021/05/29 08:45:39;;;;;;;3.25;2.95;;;;;;;25.89;36.73;96776.19;4985116;28;20485;-67
2021/05/29 08:48:06;;;;;;;4.75;3.67;;;;;;;25.75;37.31;96839.28;4985683;28;20039;-67
2021/05/29 08:50:33;;;;;;;3.53;2.90;;;;;;;24.93;38.43;96774.06;4985611;28;20497;-67
2021/05/29 08:52:58;;;;;;;4.78;3.47;;;;;;;23.11;39.96;96739.00;4986204;28;20030;-67
2021/05/29 08:55:24;;;;;;;3.42;2.92;;;;;;;23.68;40.20;96763.84;4986168;28;20878;-67
2021/05/29 08:57:50;;;;;;;3.42;2.70;;;;;;;24.70;37.75;96793.72;4987157;28;20506;-67
2021/05/29 09:00:22;;;;;;;4.18;2.50;;;;;;;25.32;38.20;96838.31;4987708;28;20038;-67
2021/05/29 09:02:58;;;;;;;3.97;2.75;;;;;;;25.88;37.96;96832.16;4987406;28;20085;-68
2021/05/29 09:05:46;;;;;;;3.67;2.45;;;;;;;25.64;36.68;96770.91;4985617;28;20124;-67
2021/05/29 09:08:13;;;;;;;4.53;2.97;;;;;;;25.63;36.89;96841.03;4985759;28;20054;-67
2021/05/29 09:10:48;;;;;;;3.28;2.75;;;;;;;24.78;38.19;96829.78;4985406;28;20041;-66
2021/05/29 09:13:16;;;;;;;3.90;3.08;;;;;;;24.54;38.90;96779.78;4986148;28;20061;-66
2021/05/29 09:15:50;;;;;;;3.53;2.60;;;;;;;25.25;38.56;96821.66;4985674;28;20077;-66
2021/05/29 09:18:36;;;;;;;4.82;2.67;;;;;;;25.34;38.80;96825.78;4987454;28;20518;-66
2021/05/29 09:21:21;;;;;;;3.13;2.90;;;;;;;25.70;37.44;96822.91;4985384;28;20069;-66
2021/05/29 09:23:52;;;;;;;2.88;2.60;;;;;;;25.07;37.81;96818.78;4985718;28;20092;-67
2021/05/29 09:26:23;;;;;;;4.10;2.75;;;;;;;25.72;37.42;96828.91;4985269;28;20034;-67
2021/05/29 09:28:50;;;;;;;4.43;2.75;;;;;;;26.61;35.71;96824.97;4987616;28;20053;-66
2021/05/29 09:31:16;;;;;;;3.65;2.78;;;;;;;26.54;35.46;96828.16;4987174;28;20026;-67
2021/05/29 09:33:44;;;;;;;2.70;2.50;;;;;;;26.56;35.21;96824.84;4985761;28;20042;-67
2021/05/29 09:36:14;;;;;;;4.57;3.05;;;;;;;26.82;34.72;96831.69;4986609;28;20125;-66
2021/05/29 09:38:54;;;;;;;3.78;3.10;;;;;;;27.32;35.75;96812.84;4987037;28;20522;-66
2021/05/29 09:41:21;;;;;;;5.32;2.83;;;;;;;27.43;34.92;96811.03;4986645;28;20571;-66
2021/05/29 09:43:55;;;;;;;4.55;2.60;;;;;;;27.45;34.84;96822.72;4986376;28;20557;-67
2021/05/29 09:46:22;;;;;;;3.42;3.22;;;;;;;27.52;34.53;96804.47;4985334;28;20041;-68
2021/05/29 09:49:05;;;;;;;5.80;3.17;;;;;;;27.87;34.53;96820.41;4987592;28;20053;-68
2021/05/29 09:51:31;;;;;;;3.13;2.63;;;;;;;27.59;34.35;96816.25;4984904;28;20496;-67
2021/05/29 09:54:06;;;;;;;3.65;3.03;;;;;;;26.99;34.99;96756.06;4986792;28;20053;-66
2021/05/29 09:56:44;;;;;;;5.25;3.22;;;;;;;27.08;35.51;96797.88;4986488;28;20069;-67
2021/05/29 09:59:17;;;;;;;3.92;3.20;;;;;;;26.92;36.05;96829.56;4985040;28;20587;-67
2021/05/29 10:01:48;;;;;;;3.17;2.97;;;;;;;27.29;34.49;96820.31;4984669;28;20030;-68
2021/05/29 10:04:16;;;;;;;4.03;3.63;;;;;;;27.23;35.57;96825.09;4984733;28;20042;-67
2021/05/29 10:06:54;;;;;;;4.00;3.70;;;;;;;26.55;34.95;96817.59;4986238;28;20493;-68
2021/05/29 10:09:20;;;;;;;6.25;3.65;;;;;;;25.20;37.90;96776.91;4987102;28;20070;-68
2021/05/29 10:11:45;;;;;;;6.47;3.38;;;;;;;25.55;36.42;96722.66;5000883;28;20061;-67
2021/05/29 10:14:10;;;;;;;5.50;3.42;;;;;;;26.78;35.77;96816.84;4986051;28;20042;-67
2021/05/29 10:16:37;;;;;;;5.47;4.10;;;;;;;26.92;35.94;96818.97;5000631;28;20137;-69
2021/05/29 10:19:03;;;;;;;4.97;2.92;;;;;;;26.86;35.53;96829.44;5001073;28;20045;-71
2021/05/29 10:21:31;;;;;;;3.60;3.30;;;;;;;26.42;34.87;96780.09;5000449;28;20038;-69
2021/05/29 10:23:59;;;;;;;16.13;10.48;;;;;;;26.57;35.84;96800.84;4986340;28;20069;-70
2021/05/29 10:26:29;;;;;;;4.88;3.30;;;;;;;26.34;36.09;96818.63;4985222;28;20480;-70
2021/05/29 10:28:56;;;;;;;3.88;3.25;;;;;;;26.41;36.28;96812.59;4986148;28;20042;-69
2021/05/29 10:31:23;;;;;;;3.72;3.10;;;;;;;26.53;35.48;96822.97;4985734;28;20093;-70
2021/05/29 10:33:49;;;;;;;3.42;3.15;;;;;;;26.60;34.93;96814.09;4986007;28;20042;-70
2021/05/29 10:36:56;;;;;;;4.15;3.13;;;;;;;27.00;34.50;96803.13;5000367;28;20038;-70
2021/05/29 10:39:25;;;;;;;3.85;3.22;;;;;;;27.11;34.35;96803.34;5003517;28;20549;-70
2021/05/29 10:41:53;;;;;;;6.03;3.40;;;;;;;27.61;34.11;96802.34;5000170;28;20113;-71
2021/05/29 10:44:42;;;;;;;3.72;3.42;;;;;;;27.89;33.74;96817.88;5000211;28;20065;-69
2021/05/29 10:47:17;;;;;;;3.33;3.13;;;;;;;27.93;32.97;96806.31;4985253;28;20584;-69
2021/05/29 10:49:58;;;;;;;4.32;3.92;;;;;;;27.59;33.45;96764.22;4985779;28;20536;-69
2021/05/29 10:52:36;;;;;;;5.13;3.22;;;;;;;27.37;34.15;96821.53;4985706;28;20061;-72
2021/05/29 10:55:08;;;;;;;3.70;3.22;;;;;;;27.27;33.87;96811.47;4999563;28;20042;-71
2021/05/29 10:58:03;;;;;;;3.47;3.17;;;;;;;26.79;35.06;96770.09;4985915;28;20449;-73
2021/05/29 11:00:35;;;;;;;4.03;3.10;;;;;;;27.36;34.68;96802.84;4999571;28;20129;-72
2021/05/29 11:03:15;;;;;;;3.13;2.85;;;;;;;27.72;34.00;96798.91;4985585;28;20129;-72
2021/05/29 11:06:07;;;;;;;3.42;3.00;;;;;;;27.55;33.84;96804.25;4984962;28;20041;-71
2021/05/29 11:08:53;;;;;;;5.03;3.28;;;;;;;27.19;34.03;96804.56;4969932;28;20054;-73
2021/05/29 11:11:43;;;;;;;3.63;3.15;;;;;;;27.13;33.84;96803.66;4983179;28;20030;-72
2021/05/29 11:14:16;;;;;;;3.28;2.97;;;;;;;24.12;34.97;96385.31;4983838;28;20660;-72
2021/05/29 11:16:51;;;;;;;;;;;;;;;26.39;35.29;96809.47;4985445;28;20472;-71
2021/05/29 11:19:25;;;;;;;4.03;2.88;;;;;;;26.08;36.33;96791.91;4985191;28;20184;-72
2021/05/29 11:22:12;;;;;;;5.85;4.25;;;;;;;26.31;36.40;96813.91;4984771;28;20104;-72
2021/05/29 11:24:50;;;;;;;3.65;3.38;;;;;;;26.03;36.77;96809.59;4983398;28;20034;-72
2021/05/29 11:27:23;;;;;;;5.03;3.35;;;;;;;25.64;37.17;96776.56;4984618;28;20117;-72
2021/05/29 11:30:08;;;;;;;2.90;2.70;;;;;;;25.76;38.59;96812.47;4983888;28;20034;-71
2021/05/29 11:35:37;;;;;;;4.18;2.72;;;;;;;25.87;38.32;96807.09;4983945;28;20487;-70
2021/05/29 11:38:14;;;;;;;3.72;3.42;;;;;;;25.96;38.51;96798.53;4984787;28;20070;-72
2021/05/29 11:40:59;;;;;;;3.28;2.97;;;;;;;25.84;38.41;96802.38;4983124;28;20130;-73
2021/05/29 11:43:41;;;;;;;4.70;3.10;;;;;;;26.15;38.49;96805.75;4982773;28;20101;-72
2021/05/29 11:46:11;;;;;;;4.25;2.80;;;;;;;26.31;37.24;96802.53;4984269;28;20358;-72
2021/05/29 11:48:44;;;;;;;5.40;3.28;;;;;;;26.27;36.95;96784.91;4984570;28;20457;-72
2021/05/29 11:51:12;;;;;;;4.20;3.10;;;;;;;26.61;36.99;96775.88;4983200;28;20045;-70
2021/05/29 11:54:02;;;;;;;4.03;3.17;;;;;;;27.26;35.61;96801.38;4985382;28;20536;-69